createdAt,value
2022-10-26T00:01:30.323Z,19.19
2022-10-26T00:03:58.690Z,19.09
2022-10-26T00:06:29.832Z,19.03
2022-10-26T00:08:59.264Z,19.00
2022-10-26T00:11:27.584Z,18.92
2022-10-26T00:13:55.923Z,18.85
2022-10-26T00:16:28.324Z,18.82
2022-10-26T00:18:57.042Z,18.71
2022-10-26T00:21:25.681Z,18.61
2022-10-26T00:23:54.030Z,18.54
2022-10-26T00:26:22.471Z,18.44
2022-10-26T00:28:50.805Z,18.35
2022-10-26T00:31:19.098Z,18.27
2022-10-26T00:33:48.181Z,18.22
2022-10-26T00:36:17.586Z,18.19
2022-10-26T00:38:53.813Z,18.13
2022-10-26T00:41:27.521Z,18.06
2022-10-26T00:43:59.582Z,18.00
2022-10-26T00:46:33.571Z,17.94
2022-10-26T00:49:21.393Z,17.88
2022-10-26T00:51:54.859Z,17.83
2022-10-26T00:54:25.751Z,17.78
2022-10-26T00:56:56.241Z,17.76
2022-10-26T00:59:25.502Z,17.72
2022-10-26T01:01:55.201Z,17.67
2022-10-26T01:04:24.051Z,17.62
2022-10-26T01:06:54.177Z,17.62
2022-10-26T01:09:22.873Z,17.58
2022-10-26T01:11:51.121Z,17.51
2022-10-26T01:14:21.623Z,17.46
2022-10-26T01:17:18.704Z,17.44
2022-10-26T01:20:11.630Z,17.38
2022-10-26T01:22:45.659Z,17.36
2022-10-26T01:25:16.621Z,17.32
2022-10-26T01:27:48.523Z,17.28
2022-10-26T01:30:20.016Z,17.27
2022-10-26T01:33:12.059Z,17.22
2022-10-26T01:36:21.194Z,17.18
2022-10-26T01:39:00.056Z,17.15
2022-10-26T01:41:37.421Z,17.10
2022-10-26T01:44:11.220Z,17.05
2022-10-26T01:46:46.443Z,17.03
2022-10-26T01:49:18.472Z,17.01
2022-10-26T01:51:49.850Z,16.98
2022-10-26T01:54:18.595Z,16.91
2022-10-26T01:56:54.299Z,16.84
2022-10-26T01:59:40.661Z,16.74
2022-10-26T02:02:45.665Z,16.63
2022-10-26T02:05:43.870Z,16.56
2022-10-26T02:08:33.655Z,16.46
2022-10-26T02:11:25.816Z,16.34
2022-10-26T02:14:03.043Z,16.23
2022-10-26T02:16:57.056Z,16.16
2022-10-26T02:19:49.185Z,16.09
2022-10-26T02:22:25.979Z,16.01
2022-10-26T02:24:55.720Z,15.95
2022-10-26T02:27:31.925Z,15.88
2022-10-26T02:30:01.850Z,15.82
2022-10-26T02:32:35.756Z,15.77
2022-10-26T02:35:06.306Z,15.76
2022-10-26T02:37:37.821Z,15.67
2022-10-26T02:40:12.065Z,15.61
2022-10-26T02:42:46.556Z,15.58
2022-10-26T02:45:20.323Z,15.54
2022-10-26T02:47:49.019Z,15.52
2022-10-26T02:50:18.140Z,15.47
2022-10-26T02:53:10.921Z,15.40
2022-10-26T02:55:48.040Z,15.35
2022-10-26T02:58:30.785Z,15.31
2022-10-26T03:00:59.797Z,15.24
2022-10-26T03:03:28.176Z,15.21
2022-10-26T03:05:56.475Z,15.17
2022-10-26T03:08:25.406Z,15.13
2022-10-26T03:10:53.671Z,15.05
2022-10-26T03:13:21.920Z,15.02
2022-10-26T03:15:50.220Z,15.02
2022-10-26T03:18:18.518Z,15.00
2022-10-26T03:20:46.940Z,14.99
2022-10-26T03:23:15.417Z,14.96
2022-10-26T03:25:43.757Z,14.94
2022-10-26T03:28:12.087Z,14.92
2022-10-26T03:30:40.478Z,14.87
2022-10-26T03:33:08.978Z,14.80
2022-10-26T03:35:37.759Z,14.76
2022-10-26T03:38:06.095Z,14.75
2022-10-26T03:40:34.340Z,14.74
2022-10-26T03:43:02.905Z,14.74
2022-10-26T03:45:31.132Z,14.68
2022-10-26T03:47:59.334Z,14.67
2022-10-26T03:50:27.656Z,14.66
2022-10-26T03:52:55.916Z,14.69
2022-10-26T03:55:26.695Z,14.69
2022-10-26T03:57:54.985Z,14.67
2022-10-26T04:00:23.295Z,14.65
2022-10-26T04:03:01.596Z,14.58
2022-10-26T04:05:30.876Z,14.53
2022-10-26T04:08:02.814Z,14.49
2022-10-26T04:10:31.172Z,14.50
2022-10-26T04:13:03.092Z,14.50
2022-10-26T04:15:31.445Z,14.48
2022-10-26T04:18:02.128Z,14.41
2022-10-26T04:20:32.500Z,14.38
2022-10-26T04:23:09.422Z,14.35
2022-10-26T04:25:37.820Z,14.32
2022-10-26T04:28:07.755Z,14.27
2022-10-26T04:30:36.729Z,14.23
2022-10-26T04:33:07.394Z,14.22
2022-10-26T04:35:36.342Z,14.22
2022-10-26T04:38:07.054Z,14.22
2022-10-26T04:40:38.946Z,14.24
2022-10-26T04:43:07.280Z,14.22
2022-10-26T04:45:35.895Z,14.23
2022-10-26T04:48:11.233Z,14.23
2022-10-26T04:50:40.602Z,14.21
2022-10-26T04:53:10.255Z,14.16
2022-10-26T04:55:38.588Z,14.13
2022-10-26T04:58:07.637Z,14.09
2022-10-26T05:00:36.860Z,14.06
2022-10-26T05:03:07.263Z,14.05
2022-10-26T05:05:41.496Z,14.02
2022-10-26T05:08:09.786Z,13.96
2022-10-26T05:10:38.132Z,13.94
2022-10-26T05:13:06.661Z,13.92
2022-10-26T05:15:35.060Z,13.89
2022-10-26T05:18:06.464Z,13.84
2022-10-26T05:20:36.391Z,13.79
2022-10-26T05:23:14.958Z,13.75
2022-10-26T05:25:43.307Z,13.69
2022-10-26T05:28:14.246Z,13.61
2022-10-26T05:30:44.218Z,13.57
2022-10-26T05:33:14.135Z,13.54
2022-10-26T05:35:42.700Z,13.45
2022-10-26T05:38:13.979Z,13.40
2022-10-26T05:40:53.198Z,13.38
2022-10-26T05:43:25.294Z,13.36
2022-10-26T05:45:54.142Z,13.32
2022-10-26T05:48:23.105Z,13.31
2022-10-26T05:50:54.300Z,13.27
2022-10-26T05:53:22.622Z,13.24
2022-10-26T05:55:51.258Z,13.19
2022-10-26T05:58:20.220Z,13.15
2022-10-26T06:01:08.731Z,13.06
2022-10-26T06:03:48.920Z,12.98
2022-10-26T06:06:17.979Z,12.91
2022-10-26T06:08:46.537Z,12.87
2022-10-26T06:11:15.233Z,12.84
2022-10-26T06:13:44.020Z,12.78
2022-10-26T06:16:26.756Z,12.71
2022-10-26T06:19:10.307Z,12.65
2022-10-26T06:22:02.796Z,12.65
2022-10-26T06:24:45.884Z,12.61
2022-10-26T06:27:51.418Z,12.53
2022-10-26T06:30:21.180Z,12.51
2022-10-26T06:32:57.100Z,12.45
2022-10-26T06:35:37.181Z,12.38
2022-10-26T06:38:10.941Z,12.35
2022-10-26T06:40:43.746Z,12.27
2022-10-26T06:43:28.081Z,12.19
2022-10-26T06:46:02.480Z,12.14
2022-10-26T06:48:35.098Z,12.07
2022-10-26T06:51:03.741Z,12.04
2022-10-26T06:53:58.447Z,11.98
2022-10-26T06:56:28.220Z,11.93
2022-10-26T06:59:04.792Z,11.90
2022-10-26T07:01:35.460Z,11.86
2022-10-26T07:04:04.062Z,11.80
2022-10-26T07:06:34.353Z,11.74
2022-10-26T07:09:10.551Z,11.67
2022-10-26T07:11:41.780Z,11.67
2022-10-26T07:14:10.400Z,11.65
2022-10-26T07:16:38.780Z,11.63
2022-10-26T07:19:07.258Z,11.60
2022-10-26T07:21:35.580Z,11.60
2022-10-26T07:24:04.045Z,11.61
2022-10-26T07:26:32.295Z,11.59
2022-10-26T07:29:00.659Z,11.59
2022-10-26T07:31:29.010Z,11.58
2022-10-26T07:33:57.798Z,11.53
2022-10-26T07:36:26.141Z,11.48
2022-10-26T07:38:55.060Z,11.44
2022-10-26T07:41:23.575Z,11.40
2022-10-26T07:43:52.682Z,11.34
2022-10-26T07:46:21.120Z,11.28
2022-10-26T07:48:49.791Z,11.25
2022-10-26T07:51:20.696Z,11.24
2022-10-26T07:53:49.022Z,11.22
2022-10-26T07:56:17.345Z,11.22
2022-10-26T07:58:45.665Z,11.18
2022-10-26T08:01:16.481Z,11.14
2022-10-26T08:03:44.951Z,11.12
2022-10-26T08:06:13.347Z,11.10
2022-10-26T08:08:45.036Z,11.06
2022-10-26T08:11:20.215Z,11.04
2022-10-26T08:13:48.540Z,11.05
2022-10-26T08:16:19.090Z,11.03
2022-10-26T08:18:50.107Z,11.03
2022-10-26T08:21:26.000Z,11.01
2022-10-26T08:24:04.220Z,10.99
2022-10-26T08:26:32.528Z,10.95
2022-10-26T08:29:00.860Z,10.88
2022-10-26T08:31:29.718Z,10.84
2022-10-26T08:33:57.985Z,10.81
2022-10-26T08:36:28.542Z,10.79
2022-10-26T08:38:56.896Z,10.71
2022-10-26T08:41:46.577Z,10.66
2022-10-26T08:44:34.300Z,10.64
2022-10-26T08:47:06.799Z,10.59
2022-10-26T08:50:01.167Z,10.58
2022-10-26T08:52:47.425Z,10.55
2022-10-26T08:55:22.460Z,10.49
2022-10-26T08:57:51.911Z,10.46
2022-10-26T09:00:26.283Z,10.40
2022-10-26T09:02:58.576Z,10.34
2022-10-26T09:05:47.741Z,10.32
2022-10-26T09:08:15.920Z,10.30
2022-10-26T09:10:55.397Z,10.31
2022-10-26T09:13:45.024Z,10.33
2022-10-26T09:16:42.720Z,10.30
2022-10-26T09:19:19.866Z,10.24
2022-10-26T09:22:05.300Z,10.24
2022-10-26T09:24:35.416Z,10.22
2022-10-26T09:27:10.807Z,10.22
2022-10-26T09:29:44.060Z,10.20
2022-10-26T09:32:23.444Z,10.17
2022-10-26T09:35:00.500Z,10.12
2022-10-26T09:37:33.959Z,10.10
2022-10-26T09:40:20.062Z,10.08
2022-10-26T09:43:06.969Z,10.04
2022-10-26T09:45:40.470Z,10.04
2022-10-26T09:48:35.975Z,10.04
2022-10-26T09:51:07.275Z,9.98
2022-10-26T09:53:38.085Z,9.93
2022-10-26T09:56:09.886Z,9.90
2022-10-26T09:59:03.012Z,9.84
2022-10-26T10:01:42.193Z,9.83
2022-10-26T10:04:25.683Z,9.84
2022-10-26T10:07:06.095Z,9.85
2022-10-26T10:09:34.401Z,9.83
2022-10-26T10:12:04.700Z,9.78
2022-10-26T10:14:39.875Z,9.74
2022-10-26T10:19:54.288Z,9.65
2022-10-26T10:22:27.220Z,9.60
2022-10-26T10:25:01.055Z,9.57
2022-10-26T10:27:30.904Z,9.56
2022-10-26T10:30:04.044Z,9.54
2022-10-26T10:32:37.043Z,9.53
2022-10-26T10:35:25.181Z,9.52
2022-10-26T10:37:54.460Z,9.48
2022-10-26T10:40:29.181Z,9.51
2022-10-26T10:43:04.379Z,9.47
2022-10-26T10:45:33.335Z,9.44
2022-10-26T10:48:06.538Z,9.42
2022-10-26T10:50:37.500Z,9.39
2022-10-26T10:53:32.821Z,9.38
2022-10-26T10:56:30.464Z,9.35
2022-10-26T10:59:29.026Z,9.34
2022-10-26T11:02:24.999Z,9.30
2022-10-26T11:05:08.699Z,9.29
2022-10-26T11:07:46.887Z,9.27
2022-10-26T11:10:18.982Z,9.25
2022-10-26T11:12:54.655Z,9.22
2022-10-26T11:15:30.864Z,9.18
2022-10-26T11:18:12.704Z,9.21
2022-10-26T11:20:50.773Z,9.22
2022-10-26T11:23:43.414Z,9.21
2022-10-26T11:26:23.261Z,9.16
2022-10-26T11:29:06.315Z,9.15
2022-10-26T11:31:50.939Z,9.16
2022-10-26T11:34:46.169Z,9.17
2022-10-26T11:37:25.059Z,9.18
2022-10-26T11:40:27.385Z,9.19
2022-10-26T11:43:01.340Z,9.16
2022-10-26T11:45:40.379Z,9.15
2022-10-26T11:48:21.780Z,9.13
2022-10-26T11:50:59.266Z,9.10
2022-10-26T11:53:45.185Z,9.06
2022-10-26T11:56:24.438Z,9.03
2022-10-26T11:58:56.306Z,8.99
2022-10-26T12:01:25.578Z,8.97
2022-10-26T12:03:57.496Z,8.91
2022-10-26T12:06:35.427Z,8.88
2022-10-26T12:09:14.303Z,8.82
2022-10-26T12:11:51.258Z,8.77
2022-10-26T12:14:24.716Z,8.71
2022-10-26T12:17:08.383Z,8.70
2022-10-26T12:20:06.277Z,8.69
2022-10-26T12:22:39.104Z,8.64
2022-10-26T12:25:16.145Z,8.64
2022-10-26T12:30:23.138Z,8.67
2022-10-26T12:33:00.359Z,8.68
2022-10-26T12:35:46.678Z,8.66
2022-10-26T12:38:30.369Z,8.63
2022-10-26T12:41:10.454Z,8.62
2022-10-26T12:46:23.018Z,8.52
2022-10-26T12:48:54.143Z,8.46
2022-10-26T12:51:27.318Z,8.43
2022-10-26T12:54:01.666Z,8.41
2022-10-26T12:56:36.213Z,8.43
2022-10-26T12:59:25.820Z,8.40
2022-10-26T13:02:12.523Z,8.39
2022-10-26T13:05:05.028Z,8.38
2022-10-26T13:07:42.919Z,8.33
2022-10-26T13:10:17.033Z,8.31
2022-10-26T13:12:51.579Z,8.30
2022-10-26T13:15:26.959Z,8.25
2022-10-26T13:18:00.022Z,8.25
2022-10-26T13:20:30.480Z,8.21
2022-10-26T13:22:59.345Z,8.18
2022-10-26T13:25:30.838Z,8.20
2022-10-26T13:28:05.018Z,8.18
2022-10-26T13:30:46.645Z,8.21
2022-10-26T13:33:34.922Z,8.21
2022-10-26T13:36:10.719Z,8.17
2022-10-26T13:38:39.270Z,8.15
2022-10-26T13:41:16.008Z,8.14
2022-10-26T13:43:55.423Z,8.12
2022-10-26T13:46:30.418Z,8.14
2022-10-26T13:49:30.579Z,8.09
2022-10-26T13:52:04.018Z,8.08
2022-10-26T13:54:56.726Z,8.08
2022-10-26T13:57:34.118Z,8.05
2022-10-26T14:00:16.979Z,8.04
2022-10-26T14:02:45.338Z,8.03
2022-10-26T14:05:17.028Z,8.02
2022-10-26T14:07:51.395Z,8.00
2022-10-26T14:10:28.068Z,7.95
2022-10-26T14:12:59.095Z,7.97
2022-10-26T14:15:38.038Z,7.96
2022-10-26T14:18:08.760Z,8.00
2022-10-26T14:20:43.258Z,8.02
2022-10-26T14:23:46.897Z,8.01
2022-10-26T14:26:25.455Z,8.05
2022-10-26T14:28:59.573Z,8.07
2022-10-26T14:31:34.192Z,8.07
2022-10-26T14:34:02.937Z,8.09
2022-10-26T14:36:45.661Z,8.12
2022-10-26T14:39:32.512Z,8.13
2022-10-26T14:42:08.469Z,8.11
2022-10-26T14:44:38.778Z,8.15
2022-10-26T14:47:36.280Z,8.13
2022-10-26T14:50:07.567Z,8.14
2022-10-26T14:52:43.424Z,8.15
2022-10-26T14:55:17.199Z,8.17
2022-10-26T14:57:48.533Z,8.15
2022-10-26T15:00:24.383Z,8.13
2022-10-26T15:02:58.923Z,8.16
2022-10-26T15:05:35.541Z,8.22
2022-10-26T15:08:04.560Z,8.28
2022-10-26T15:10:38.808Z,8.34
2022-10-26T15:13:25.859Z,8.38
2022-10-26T15:16:01.749Z,8.41
2022-10-26T15:18:36.479Z,8.45
2022-10-26T15:21:04.838Z,8.52
2022-10-26T15:23:34.364Z,8.60
2022-10-26T15:26:07.104Z,8.68
2022-10-26T15:28:41.252Z,8.72
2022-10-26T15:31:12.238Z,8.77
2022-10-26T15:34:03.420Z,8.82
2022-10-26T15:36:36.704Z,8.90
2022-10-26T15:39:05.178Z,8.92
2022-10-26T15:41:40.160Z,8.96
2022-10-26T15:44:20.724Z,9.01
2022-10-26T15:46:51.218Z,9.04
2022-10-26T15:49:23.060Z,9.06
2022-10-26T15:51:53.669Z,9.11
2022-10-26T15:54:24.820Z,9.15
2022-10-26T15:56:57.888Z,9.23
2022-10-26T15:59:29.123Z,9.31
2022-10-26T16:01:57.436Z,9.39
2022-10-26T16:04:25.888Z,9.48
2022-10-26T16:07:02.700Z,9.61
2022-10-26T16:09:30.999Z,9.75
2022-10-26T16:12:07.439Z,9.90
2022-10-26T16:14:53.356Z,10.07
2022-10-26T16:17:26.013Z,10.29
2022-10-26T16:19:54.238Z,10.49
2022-10-26T16:22:22.469Z,10.68
2022-10-26T16:24:50.906Z,10.85
2022-10-26T16:27:19.273Z,10.98
2022-10-26T16:29:47.863Z,11.08
2022-10-26T16:32:20.847Z,11.17
2022-10-26T16:34:51.144Z,11.24
2022-10-26T16:37:22.303Z,11.31
2022-10-26T16:39:50.759Z,11.38
2022-10-26T16:42:23.599Z,11.43
2022-10-26T16:44:53.677Z,11.47
2022-10-26T16:47:27.247Z,11.50
2022-10-26T16:49:55.538Z,11.48
2022-10-26T16:52:23.899Z,11.46
2022-10-26T16:54:59.721Z,11.43
2022-10-26T16:57:28.347Z,11.42
2022-10-26T17:00:04.226Z,11.43
2022-10-26T17:02:38.158Z,11.49
2022-10-26T17:05:07.530Z,11.47
2022-10-26T17:07:36.546Z,11.51
2022-10-26T17:10:06.258Z,11.58
2022-10-26T17:12:34.554Z,11.65
2022-10-26T17:15:06.278Z,11.74
2022-10-26T17:17:34.944Z,11.84
2022-10-26T17:20:04.779Z,11.92
2022-10-26T17:22:36.118Z,12.01
2022-10-26T17:25:07.533Z,12.17
2022-10-26T17:27:37.978Z,12.27
2022-10-26T17:30:06.939Z,12.37
2022-10-26T17:32:35.265Z,12.49
2022-10-26T17:35:03.738Z,12.60
2022-10-26T17:37:35.240Z,12.68
2022-10-26T17:40:03.898Z,12.74
2022-10-26T17:42:32.219Z,12.84
2022-10-26T17:45:00.488Z,12.94
2022-10-26T17:47:28.733Z,13.01
2022-10-26T17:49:57.023Z,13.12
2022-10-26T17:52:28.543Z,13.23
2022-10-26T17:54:59.199Z,13.33
2022-10-26T17:57:33.147Z,13.37
2022-10-26T18:00:01.393Z,13.43
2022-10-26T18:02:30.825Z,13.53
2022-10-26T18:05:05.095Z,13.65
2022-10-26T18:07:35.418Z,13.73
2022-10-26T18:10:13.954Z,13.84
2022-10-26T18:12:52.349Z,13.99
2022-10-26T18:15:30.513Z,14.14
2022-10-26T18:18:00.769Z,14.28
2022-10-26T18:20:29.345Z,14.39
2022-10-26T18:22:58.460Z,14.50
2022-10-26T18:25:30.665Z,14.55
2022-10-26T18:27:59.164Z,14.62
2022-10-26T18:30:27.578Z,14.67
2022-10-26T18:32:55.906Z,14.72
2022-10-26T18:35:25.020Z,14.87
2022-10-26T18:37:55.589Z,14.99
2022-10-26T18:40:26.079Z,15.13
2022-10-26T18:42:54.440Z,15.22
2022-10-26T18:45:22.775Z,15.34
2022-10-26T18:47:51.370Z,15.45
2022-10-26T18:50:22.143Z,15.58
2022-10-26T18:52:50.464Z,15.70
2022-10-26T18:55:21.805Z,15.82
2022-10-26T18:57:50.366Z,15.95
2022-10-26T19:00:19.219Z,16.07
2022-10-26T19:02:52.401Z,16.15
2022-10-26T19:05:21.759Z,16.23
2022-10-26T19:07:52.702Z,16.30
2022-10-26T19:10:21.000Z,16.40
2022-10-26T19:12:49.653Z,16.46
2022-10-26T19:15:18.199Z,16.50
2022-10-26T19:17:46.501Z,16.55
2022-10-26T19:20:14.957Z,16.68
2022-10-26T19:22:43.270Z,16.83
2022-10-26T19:25:11.664Z,16.91
2022-10-26T19:27:42.579Z,16.95
2022-10-26T19:30:11.578Z,17.07
2022-10-26T19:32:42.918Z,17.24
2022-10-26T19:35:13.078Z,17.36
2022-10-26T19:37:41.509Z,17.41
2022-10-26T19:40:11.041Z,17.48
2022-10-26T19:42:41.908Z,17.55
2022-10-26T19:45:13.513Z,17.64
2022-10-26T19:47:41.825Z,17.72
2022-10-26T19:50:10.439Z,17.80
2022-10-26T19:52:38.784Z,17.90
2022-10-26T19:55:10.248Z,18.00
2022-10-26T19:57:38.483Z,18.09
2022-10-26T20:00:07.278Z,18.12
2022-10-26T20:02:35.598Z,18.21
2022-10-26T20:05:03.813Z,18.30
2022-10-26T20:07:32.058Z,18.42
2022-10-26T20:10:00.349Z,18.52
2022-10-26T20:12:30.950Z,18.57
2022-10-26T20:14:59.382Z,18.57
2022-10-26T20:17:30.685Z,18.58
2022-10-26T20:19:58.989Z,18.62
2022-10-26T20:22:27.254Z,18.70
2022-10-26T20:24:55.508Z,18.72
2022-10-26T20:27:23.774Z,18.83
2022-10-26T20:29:52.179Z,18.95
2022-10-26T20:32:20.388Z,19.02
2022-10-26T20:34:50.635Z,19.15
2022-10-26T20:37:19.693Z,19.34
2022-10-26T20:39:48.242Z,19.34
2022-10-26T20:42:24.963Z,19.33
2022-10-26T20:45:02.614Z,19.38
2022-10-26T20:47:31.278Z,19.40
2022-10-26T20:50:05.486Z,19.42
2022-10-26T20:52:43.740Z,19.44
2022-10-26T20:55:49.639Z,19.55
2022-10-26T20:58:39.046Z,19.69
2022-10-26T21:01:18.168Z,19.86
2022-10-26T21:03:46.458Z,19.92
2022-10-26T21:06:14.943Z,19.93
2022-10-26T21:08:43.819Z,19.97
2022-10-26T21:11:12.077Z,20.01
2022-10-26T21:13:42.450Z,20.06
2022-10-26T21:16:10.790Z,20.05
2022-10-26T21:18:39.034Z,20.06
2022-10-26T21:21:07.746Z,20.12
2022-10-26T21:23:39.264Z,20.11
2022-10-26T21:26:08.834Z,20.14
2022-10-26T21:28:40.280Z,20.27
2022-10-26T21:31:11.219Z,20.38
2022-10-26T21:33:40.706Z,20.55
2022-10-26T21:36:15.331Z,20.80
2022-10-26T21:38:45.409Z,20.83
2022-10-26T21:41:19.322Z,20.85
2022-10-26T21:43:53.263Z,20.93
2022-10-26T21:46:27.593Z,20.95
2022-10-26T21:48:56.534Z,20.99
2022-10-26T21:51:25.186Z,21.15
2022-10-26T21:53:53.753Z,21.35
2022-10-26T21:56:23.518Z,21.56
2022-10-26T21:58:51.900Z,21.75
2022-10-26T22:01:22.625Z,21.96
2022-10-26T22:03:51.440Z,21.90
2022-10-26T22:06:21.213Z,21.77
2022-10-26T22:08:49.890Z,21.87
2022-10-26T22:11:21.151Z,22.01
2022-10-26T22:13:51.601Z,22.15
2022-10-26T22:16:22.123Z,22.27
2022-10-26T22:18:52.200Z,22.16
2022-10-26T22:21:25.675Z,22.01
2022-10-26T22:23:56.667Z,21.84
2022-10-26T22:26:26.520Z,21.76
2022-10-26T22:29:00.740Z,21.67
2022-10-26T22:31:34.841Z,21.64
2022-10-26T22:34:07.842Z,21.50
2022-10-26T22:36:37.317Z,21.38
2022-10-26T22:39:05.931Z,21.36
2022-10-26T22:41:34.320Z,21.40
2022-10-26T22:44:02.652Z,21.32
2022-10-26T22:46:33.260Z,21.14
2022-10-26T22:49:03.262Z,21.03
2022-10-26T22:51:35.903Z,20.94
2022-10-26T22:54:06.795Z,20.82
2022-10-26T22:56:37.303Z,20.59
2022-10-26T22:59:07.235Z,20.41
2022-10-26T23:01:40.858Z,20.34
2022-10-26T23:04:12.667Z,20.26
2022-10-26T23:06:41.396Z,20.16
2022-10-26T23:09:09.820Z,20.04
2022-10-26T23:11:41.103Z,19.92
2022-10-26T23:14:11.900Z,19.85
2022-10-26T23:16:40.215Z,19.73
2022-10-26T23:19:09.640Z,19.56
2022-10-26T23:21:40.200Z,19.45
2022-10-26T23:24:08.948Z,19.33
2022-10-26T23:26:37.501Z,19.23
2022-10-26T23:29:06.781Z,19.16
2022-10-26T23:31:35.201Z,19.10
2022-10-26T23:34:03.436Z,19.07
2022-10-26T23:36:31.751Z,19.03
2022-10-26T23:39:00.240Z,18.95
2022-10-26T23:41:31.801Z,18.88
2022-10-26T23:44:00.250Z,18.85
2022-10-26T23:46:28.631Z,18.78
2022-10-26T23:48:57.036Z,18.72
2022-10-26T23:51:25.362Z,18.69
2022-10-26T23:53:53.821Z,18.65
2022-10-26T23:56:22.139Z,18.59
2022-10-26T23:58:53.657Z,18.52
